createdAt,value
2018-04-23T00:00:28.662Z,99.90
2018-04-23T00:02:56.280Z,99.90
2018-04-23T00:05:23.822Z,99.90
2018-04-23T00:07:51.332Z,99.90
2018-04-23T00:10:18.953Z,99.90
2018-04-23T00:12:46.466Z,99.90
2018-04-23T00:15:14.070Z,99.90
2018-04-23T00:17:41.571Z,99.90
2018-04-23T00:20:09.097Z,99.90
2018-04-23T00:22:36.752Z,99.90
2018-04-23T00:25:04.308Z,99.90
2018-04-23T00:27:31.847Z,99.90
2018-04-23T00:30:00.140Z,99.90
2018-04-23T00:32:28.412Z,99.90
2018-04-23T00:34:55.961Z,99.90
2018-04-23T00:37:24.240Z,99.90
2018-04-23T00:39:52.519Z,99.90
2018-04-23T00:42:20.942Z,99.90
2018-04-23T00:44:48.462Z,99.90
2018-04-23T00:47:16.756Z,99.90
2018-04-23T00:49:44.317Z,99.90
2018-04-23T00:52:11.828Z,99.90
2018-04-23T00:54:39.433Z,99.90
2018-04-23T00:57:07.727Z,99.90
2018-04-23T00:59:35.277Z,99.90
2018-04-23T01:02:02.835Z,99.90
2018-04-23T01:04:30.399Z,99.90
2018-04-23T01:06:57.966Z,99.90
2018-04-23T01:09:25.512Z,99.90
2018-04-23T01:11:53.083Z,99.90
2018-04-23T01:14:20.645Z,99.90
2018-04-23T01:16:48.174Z,99.90
2018-04-23T01:19:16.457Z,99.90
2018-04-23T01:21:44.749Z,99.90
2018-04-23T01:24:12.278Z,99.90
2018-04-23T01:26:39.813Z,99.00
2018-04-23T01:29:07.325Z,99.10
2018-04-23T01:31:35.599Z,99.30
2018-04-23T01:34:03.135Z,99.20
2018-04-23T01:36:30.731Z,99.30
2018-04-23T01:38:58.241Z,99.30
2018-04-23T01:41:25.764Z,99.10
2018-04-23T01:43:53.283Z,98.50
2018-04-23T01:46:21.563Z,98.10
2018-04-23T01:48:49.869Z,98.50
2018-04-23T01:51:17.383Z,98.10
2018-04-23T01:53:44.894Z,98.20
2018-04-23T01:56:12.441Z,98.40
2018-04-23T01:58:39.957Z,98.60
2018-04-23T02:01:07.579Z,98.70
2018-04-23T02:03:35.115Z,98.70
2018-04-23T02:06:03.412Z,98.40
2018-04-23T02:08:30.937Z,98.40
2018-04-23T02:10:59.251Z,98.60
2018-04-23T02:13:26.757Z,98.50
2018-04-23T02:15:54.370Z,98.70
2018-04-23T02:18:21.892Z,98.90
2018-04-23T02:20:50.192Z,99.10
2018-04-23T02:23:17.703Z,99.10
2018-04-23T02:25:45.228Z,99.40
2018-04-23T02:28:12.853Z,99.60
2018-04-23T02:30:41.146Z,99.90
2018-04-23T02:33:09.445Z,99.90
2018-04-23T02:35:37.005Z,99.90
2018-04-23T02:38:04.506Z,99.90
2018-04-23T02:40:32.034Z,98.70
2018-04-23T02:42:59.569Z,98.50
2018-04-23T02:45:27.080Z,98.20
2018-04-23T02:47:54.612Z,98.10
2018-04-23T02:50:22.126Z,98.00
2018-04-23T02:52:50.442Z,98.30
2018-04-23T02:55:17.994Z,98.30
2018-04-23T02:57:45.504Z,98.40
2018-04-23T03:00:13.048Z,98.50
2018-04-23T03:02:40.597Z,98.60
2018-04-23T03:05:08.104Z,98.80
2018-04-23T03:07:36.404Z,99.10
2018-04-23T03:10:03.965Z,99.10
2018-04-23T03:12:31.468Z,99.40
2018-04-23T03:14:58.996Z,99.30
2018-04-23T03:17:26.661Z,99.40
2018-04-23T03:19:54.206Z,99.30
2018-04-23T03:22:21.710Z,99.40
2018-04-23T03:24:49.328Z,99.40
2018-04-23T03:27:16.849Z,99.60
2018-04-23T03:29:44.366Z,99.60
2018-04-23T03:32:11.878Z,99.80
2018-04-23T03:34:39.469Z,99.80
2018-04-23T03:37:07.039Z,99.90
2018-04-23T03:39:34.567Z,99.90
2018-04-23T03:42:02.979Z,99.90
2018-04-23T03:44:30.580Z,99.90
2018-04-23T03:46:58.086Z,99.90
2018-04-23T03:49:25.586Z,99.90
2018-04-23T03:51:53.208Z,99.90
2018-04-23T03:54:20.729Z,99.90
2018-04-23T03:56:48.237Z,99.90
2018-04-23T03:59:15.752Z,99.90
2018-04-23T04:01:43.344Z,99.90
2018-04-23T04:04:10.910Z,99.90
2018-04-23T04:06:38.428Z,99.90
2018-04-23T04:09:06.047Z,99.90
2018-04-23T04:11:33.586Z,99.90
2018-04-23T04:14:13.088Z,99.90
2018-04-23T04:16:52.487Z,99.90
2018-04-23T04:19:20.022Z,99.90
2018-04-23T04:21:48.298Z,99.90
2018-04-23T04:24:16.571Z,99.90
2018-04-23T04:26:44.855Z,99.90
2018-04-23T04:29:13.261Z,99.90
2018-04-23T04:31:40.796Z,99.90
2018-04-23T04:34:08.351Z,99.90
2018-04-23T04:36:35.873Z,99.90
2018-04-23T04:39:03.396Z,99.90
2018-04-23T04:41:30.930Z,99.90
2018-04-23T04:43:59.252Z,99.90
2018-04-23T04:46:26.774Z,99.90
2018-04-23T04:48:54.321Z,99.90
2018-04-23T04:51:22.663Z,99.90
2018-04-23T04:53:50.141Z,99.90
2018-04-23T04:56:17.689Z,99.90
2018-04-23T04:58:45.301Z,99.90
2018-04-23T05:01:13.111Z,99.90
2018-04-23T05:03:40.735Z,99.90
2018-04-23T05:06:08.243Z,99.90
2018-04-23T05:08:35.857Z,99.90
2018-04-23T05:11:03.424Z,99.90
2018-04-23T05:13:30.945Z,99.90
2018-04-23T05:15:59.247Z,99.90
2018-04-23T05:18:26.776Z,99.90
2018-04-23T05:20:55.069Z,99.90
2018-04-23T05:23:23.343Z,99.90
2018-04-23T05:25:51.756Z,99.90
2018-04-23T05:28:19.271Z,99.90
2018-04-23T05:30:47.557Z,99.90
2018-04-23T05:33:15.853Z,99.90
2018-04-23T05:35:43.375Z,99.90
2018-04-23T05:38:10.913Z,99.90
2018-04-23T05:40:38.441Z,99.90
2018-04-23T05:43:05.997Z,99.90
2018-04-23T05:45:33.525Z,99.90
2018-04-23T05:48:01.819Z,99.90
2018-04-23T05:50:30.102Z,99.90
2018-04-23T05:52:57.616Z,99.90
2018-04-23T05:55:25.148Z,99.90
2018-04-23T05:57:52.746Z,99.90
2018-04-23T06:00:20.365Z,99.90
2018-04-23T06:02:47.893Z,99.90
2018-04-23T06:05:16.197Z,99.90
2018-04-23T06:07:43.720Z,99.90
2018-04-23T06:10:12.013Z,99.90
2018-04-23T06:12:39.591Z,99.90
2018-04-23T06:15:07.127Z,99.90
2018-04-23T06:17:35.419Z,99.90
2018-04-23T06:20:02.961Z,99.90
2018-04-23T06:22:31.234Z,99.90
2018-04-23T06:24:59.645Z,99.90
2018-04-23T06:27:27.200Z,99.90
2018-04-23T06:29:54.722Z,99.90
2018-04-23T06:32:22.272Z,99.90
2018-04-23T06:34:49.788Z,99.90
2018-04-23T06:37:17.316Z,99.90
2018-04-23T06:39:45.601Z,99.90
2018-04-23T06:42:13.913Z,99.90
2018-04-23T06:44:41.529Z,99.90
2018-04-23T06:47:09.944Z,99.90
2018-04-23T06:49:37.472Z,99.90
2018-04-23T06:52:05.751Z,99.90
2018-04-23T06:54:34.049Z,99.90
2018-04-23T06:57:01.571Z,99.90
2018-04-23T06:59:29.179Z,99.90
2018-04-23T07:01:56.707Z,99.90
2018-04-23T07:04:25.005Z,99.90
2018-04-23T07:06:52.531Z,99.90
2018-04-23T07:09:20.825Z,99.90
2018-04-23T07:11:49.161Z,99.90
2018-04-23T07:14:16.673Z,99.90
2018-04-23T07:16:44.204Z,99.90
2018-04-23T07:19:11.724Z,99.90
2018-04-23T07:21:39.254Z,99.90
2018-04-23T07:24:07.580Z,99.90
2018-04-23T07:26:35.098Z,99.90
2018-04-23T07:29:02.663Z,99.90
2018-04-23T07:31:30.224Z,99.90
2018-04-23T07:33:57.779Z,99.90
2018-04-23T07:36:25.345Z,99.90
2018-04-23T07:38:52.867Z,99.90
2018-04-23T07:41:20.386Z,99.90
2018-04-23T07:43:47.899Z,99.90
2018-04-23T07:46:15.493Z,99.90
2018-04-23T07:48:43.067Z,99.90
2018-04-23T07:51:10.579Z,99.90
2018-04-23T07:53:38.885Z,99.90
2018-04-23T07:56:06.407Z,99.90
2018-04-23T07:58:33.922Z,99.90
2018-04-23T08:01:01.449Z,99.90
2018-04-23T08:03:28.968Z,99.90
2018-04-23T08:05:56.496Z,99.90
2018-04-23T08:08:24.046Z,99.90
2018-04-23T08:10:51.576Z,99.90
2018-04-23T08:13:19.855Z,99.90
2018-04-23T08:15:48.162Z,99.90
2018-04-23T08:18:15.676Z,99.90
2018-04-23T08:20:43.217Z,99.90
2018-04-23T08:23:10.841Z,99.90
2018-04-23T08:25:38.389Z,99.90
2018-04-23T08:28:05.932Z,99.90
2018-04-23T08:30:34.245Z,99.90
2018-04-23T08:33:01.765Z,99.90
2018-04-23T08:35:30.075Z,99.90
2018-04-23T08:37:57.599Z,99.90
2018-04-23T08:40:25.899Z,99.90
2018-04-23T08:42:53.421Z,99.90
2018-04-23T08:45:22.451Z,99.90
2018-04-23T08:47:50.752Z,99.90
2018-04-23T08:50:18.294Z,99.90
2018-04-23T08:52:45.859Z,99.90
2018-04-23T08:55:13.371Z,99.90
2018-04-23T08:57:40.933Z,99.90
2018-04-23T09:00:08.555Z,99.90
2018-04-23T09:02:36.069Z,99.90
2018-04-23T09:05:04.374Z,99.90
2018-04-23T09:07:31.903Z,99.90
2018-04-23T09:09:59.423Z,99.90
2018-04-23T09:12:26.935Z,99.90
2018-04-23T09:14:55.335Z,99.00
2018-04-23T09:17:22.862Z,99.00
2018-04-23T09:19:50.383Z,99.80
2018-04-23T09:22:17.923Z,99.60
2018-04-23T09:24:45.443Z,99.90
2018-04-23T09:27:13.743Z,99.20
2018-04-23T09:29:42.026Z,98.60
2018-04-23T09:32:09.631Z,98.60
2018-04-23T09:34:37.159Z,98.80
2018-04-23T09:37:04.691Z,96.90
2018-04-23T09:39:33.043Z,96.00
2018-04-23T09:42:00.666Z,96.00
2018-04-23T09:44:28.502Z,96.10
2018-04-23T09:46:56.035Z,94.60
2018-04-23T09:49:23.640Z,95.60
2018-04-23T09:51:51.211Z,96.20
2018-04-23T09:54:18.715Z,97.00
2018-04-23T09:56:46.236Z,95.50
2018-04-23T09:59:13.790Z,95.90
2018-04-23T10:01:47.028Z,95.90
2018-04-23T10:04:20.167Z,95.30
2018-04-23T10:06:47.687Z,93.80
2018-04-23T10:09:15.400Z,93.90
2018-04-23T10:11:42.954Z,95.80
2018-04-23T10:14:10.514Z,95.20
2018-04-23T10:16:38.030Z,95.10
2018-04-23T10:19:05.547Z,95.10
2018-04-23T10:21:33.312Z,95.20
2018-04-23T10:24:00.832Z,94.80
2018-04-23T10:26:29.146Z,95.10
2018-04-23T10:28:56.705Z,94.70
2018-04-23T10:31:24.258Z,96.10
2018-04-23T10:33:52.563Z,93.30
2018-04-23T10:36:20.322Z,93.20
2018-04-23T10:38:47.860Z,92.50
2018-04-23T10:41:15.392Z,94.20
2018-04-23T10:43:43.672Z,94.80
2018-04-23T10:46:12.802Z,93.30
2018-04-23T10:48:40.342Z,93.20
2018-04-23T10:53:42.702Z,93.50
2018-04-23T10:56:10.308Z,93.20
2018-04-23T10:58:37.858Z,93.20
2018-04-23T11:01:05.429Z,92.30
2018-04-23T11:03:32.941Z,93.20
2018-04-23T11:06:00.467Z,92.30
2018-04-23T11:08:27.996Z,92.00
2018-04-23T11:10:55.515Z,90.80
2018-04-23T11:13:23.173Z,91.30
2018-04-23T11:15:50.736Z,91.10
2018-04-23T11:18:18.859Z,89.90
2018-04-23T11:20:46.375Z,90.40
2018-04-23T11:23:15.513Z,91.30
2018-04-23T11:25:43.087Z,91.20
2018-04-23T11:28:10.683Z,91.10
2018-04-23T11:30:38.219Z,90.40
2018-04-23T11:33:05.731Z,90.20
2018-04-23T11:35:34.042Z,88.60
2018-04-23T11:38:01.694Z,88.40
2018-04-23T11:40:29.209Z,87.30
2018-04-23T11:42:57.529Z,90.60
2018-04-23T11:45:25.077Z,90.60
2018-04-23T11:47:53.389Z,90.20
2018-04-23T11:50:20.947Z,90.20
2018-04-23T11:52:48.477Z,92.30
2018-04-23T11:55:16.765Z,90.70
2018-04-23T11:57:44.326Z,90.70
2018-04-23T12:00:11.847Z,91.40
2018-04-23T12:02:39.362Z,90.40
2018-04-23T12:05:06.869Z,90.30
2018-04-23T12:07:34.391Z,85.90
2018-04-23T12:10:01.938Z,83.30
2018-04-23T12:12:29.448Z,83.90
2018-04-23T12:14:56.976Z,82.40
2018-04-23T12:17:24.490Z,84.90
2018-04-23T12:19:52.763Z,80.70
2018-04-23T12:22:21.103Z,82.50
2018-04-23T12:24:48.654Z,82.50
2018-04-23T12:27:16.168Z,82.60
2018-04-23T12:29:44.576Z,81.40
2018-04-23T12:32:12.124Z,81.40
2018-04-23T12:34:39.649Z,81.50
2018-04-23T12:37:07.176Z,79.00
2018-04-23T12:39:34.702Z,78.50
2018-04-23T12:42:02.298Z,83.80
2018-04-23T12:44:29.810Z,81.90
2018-04-23T12:46:58.089Z,83.00
2018-04-23T12:49:26.467Z,78.90
2018-04-23T12:51:54.744Z,80.60
2018-04-23T12:54:23.016Z,81.00
2018-04-23T12:56:51.636Z,80.40
2018-04-23T12:59:19.163Z,80.30
2018-04-23T13:01:47.730Z,76.50
2018-04-23T13:04:15.238Z,76.40
2018-04-23T13:06:42.798Z,78.30
2018-04-23T13:09:10.316Z,80.50
2018-04-23T13:11:37.928Z,83.50
2018-04-23T13:14:05.460Z,84.00
2018-04-23T13:16:33.762Z,83.40
2018-04-23T13:19:01.266Z,83.20
2018-04-23T13:21:28.834Z,81.80
2018-04-23T13:23:57.164Z,83.70
2018-04-23T13:26:24.692Z,83.70
2018-04-23T13:28:53.099Z,82.50
2018-04-23T13:31:20.685Z,82.40
2018-04-23T13:33:48.192Z,83.00
2018-04-23T13:36:16.488Z,83.70
2018-04-23T13:38:44.002Z,82.90
2018-04-23T13:41:11.622Z,81.90
2018-04-23T13:43:39.161Z,79.80
2018-04-23T13:46:06.668Z,82.20
2018-04-23T13:48:34.192Z,82.60
2018-04-23T13:51:01.720Z,83.20
2018-04-23T13:53:30.007Z,85.10
2018-04-23T13:55:58.303Z,87.50
2018-04-23T13:58:25.827Z,87.40
2018-04-23T14:00:53.349Z,90.00
2018-04-23T14:03:20.883Z,87.60
2018-04-23T14:05:48.413Z,86.10
2018-04-23T14:08:16.708Z,84.50
2018-04-23T14:10:44.241Z,84.50
2018-04-23T14:13:11.843Z,85.60
2018-04-23T14:15:39.362Z,85.50
2018-04-23T14:18:06.876Z,84.50
2018-04-23T14:20:34.403Z,84.70
2018-04-23T14:23:02.688Z,85.40
2018-04-23T14:25:30.255Z,85.40
2018-04-23T14:27:57.837Z,85.80
2018-04-23T14:30:25.397Z,84.50
2018-04-23T14:32:52.942Z,84.00
2018-04-23T14:35:20.489Z,85.70
2018-04-23T14:37:48.061Z,87.30
2018-04-23T14:40:15.571Z,84.10
2018-04-23T14:42:43.097Z,83.10
2018-04-23T14:45:10.606Z,84.10
2018-04-23T14:47:38.121Z,85.50
2018-04-23T14:50:05.648Z,82.00
2018-04-23T14:52:33.172Z,83.30
2018-04-23T14:55:01.476Z,81.40
2018-04-23T14:57:29.749Z,84.00
2018-04-23T14:59:58.043Z,84.40
2018-04-23T15:02:25.626Z,84.60
2018-04-23T15:04:53.152Z,85.20
2018-04-23T15:07:21.438Z,86.80
2018-04-23T15:09:48.962Z,86.70
2018-04-23T15:12:16.499Z,83.50
2018-04-23T15:14:44.025Z,87.00
2018-04-23T15:17:11.555Z,87.30
2018-04-23T15:19:39.848Z,86.00
2018-04-23T15:22:08.136Z,86.00
2018-04-23T15:24:35.653Z,86.00
2018-04-23T15:27:03.184Z,84.80
2018-04-23T15:29:30.700Z,86.70
2018-04-23T15:31:58.981Z,87.00
2018-04-23T15:34:26.530Z,87.00
2018-04-23T15:36:54.812Z,88.90
2018-04-23T15:39:23.100Z,90.00
2018-04-23T15:41:50.658Z,90.00
2018-04-23T15:44:18.957Z,87.50
2018-04-23T15:46:46.518Z,87.40
2018-04-23T15:49:14.066Z,88.20
2018-04-23T15:51:41.611Z,89.30
2018-04-23T15:54:09.886Z,90.30
2018-04-23T15:56:38.193Z,88.30
2018-04-23T15:59:05.753Z,88.30
2018-04-23T16:01:33.291Z,90.10
2018-04-23T16:04:01.697Z,89.00
2018-04-23T16:06:29.228Z,88.90
2018-04-23T16:08:57.512Z,89.20
2018-04-23T16:11:25.055Z,89.10
2018-04-23T16:13:53.357Z,87.20
2018-04-23T16:16:20.870Z,87.30
2018-04-23T16:18:48.420Z,86.60
2018-04-23T16:21:15.936Z,87.10
2018-04-23T16:23:43.448Z,84.30
2018-04-23T16:26:11.058Z,85.90
2018-04-23T16:28:38.632Z,84.20
2018-04-23T16:31:06.154Z,84.10
2018-04-23T16:33:34.449Z,86.20
2018-04-23T16:36:02.025Z,86.30
2018-04-23T16:38:29.584Z,88.20
2018-04-23T16:40:57.111Z,87.10
2018-04-23T16:43:25.452Z,88.50
2018-04-23T16:45:52.936Z,88.60
2018-04-23T16:48:20.446Z,88.10
2018-04-23T16:50:47.954Z,88.30
2018-04-23T16:53:15.485Z,89.20
2018-04-23T16:55:43.012Z,90.10
2018-04-23T16:58:10.593Z,89.60
2018-04-23T17:00:38.114Z,90.30
2018-04-23T17:03:06.406Z,90.40
2018-04-23T17:05:33.916Z,90.40
2018-04-23T17:08:01.597Z,90.00
2018-04-23T17:10:29.079Z,90.20
2018-04-23T17:12:56.652Z,90.70
2018-04-23T17:15:24.167Z,90.10
2018-04-23T17:17:51.683Z,90.60
2018-04-23T17:20:19.186Z,90.40
2018-04-23T17:22:46.726Z,89.70
2018-04-23T17:25:14.258Z,90.20
2018-04-23T17:27:41.782Z,90.20
2018-04-23T17:30:10.110Z,90.50
2018-04-23T17:32:37.660Z,90.50
2018-04-23T17:35:05.200Z,90.80
2018-04-23T17:37:33.498Z,90.90
2018-04-23T17:40:01.020Z,90.90
2018-04-23T17:42:29.307Z,91.40
2018-04-23T17:44:57.575Z,91.70
2018-04-23T17:47:25.877Z,91.90
2018-04-23T17:49:53.428Z,92.00
2018-04-23T17:52:21.706Z,92.70
2018-04-23T17:54:49.249Z,92.70
2018-04-23T17:57:17.527Z,93.20
2018-04-23T17:59:45.836Z,93.50
2018-04-23T18:02:13.353Z,93.50
2018-04-23T18:04:41.631Z,94.00
2018-04-23T18:07:09.245Z,94.00
2018-04-23T18:09:36.777Z,94.30
2018-04-23T18:12:05.082Z,94.40
2018-04-23T18:14:32.588Z,94.30
2018-04-23T18:17:00.881Z,94.20
2018-04-23T18:19:29.168Z,94.60
2018-04-23T18:21:57.442Z,94.80
2018-04-23T18:24:25.728Z,95.30
2018-04-23T18:26:53.249Z,95.30
2018-04-23T18:29:20.755Z,95.60
2018-04-23T18:31:48.288Z,95.90
2018-04-23T18:34:16.585Z,96.40
2018-04-23T18:36:44.923Z,96.60
2018-04-23T18:39:12.443Z,96.50
2018-04-23T18:41:39.983Z,96.90
2018-04-23T18:44:08.327Z,97.00
2018-04-23T18:46:35.949Z,97.00
2018-04-23T18:49:03.476Z,97.30
2018-04-23T18:51:31.754Z,97.50
2018-04-23T18:54:00.050Z,97.60
2018-04-23T18:56:27.564Z,97.60
2018-04-23T18:58:55.083Z,97.70
2018-04-23T19:01:22.610Z,98.00
2018-04-23T19:03:50.908Z,98.40
2018-04-23T19:06:18.433Z,98.40
2018-04-23T19:08:46.060Z,98.60
2018-04-23T19:11:13.687Z,98.70
2018-04-23T19:13:41.245Z,98.90
2018-04-23T19:16:08.777Z,99.00
2018-04-23T19:18:36.378Z,99.10
2018-04-23T19:21:03.917Z,99.30
2018-04-23T19:23:32.219Z,99.50
2018-04-23T19:25:59.748Z,99.50
2018-04-23T19:28:28.175Z,99.80
2018-04-23T19:30:55.823Z,99.80
2018-04-23T19:33:23.337Z,99.90
2018-04-23T19:35:51.717Z,99.90
2018-04-23T19:38:19.179Z,99.90
2018-04-23T19:40:47.461Z,99.90
2018-04-23T19:43:15.749Z,99.90
2018-04-23T19:45:44.063Z,99.90
2018-04-23T19:48:11.585Z,99.90
2018-04-23T19:50:39.859Z,99.90
2018-04-23T19:53:08.270Z,99.90
2018-04-23T19:55:35.774Z,99.90
2018-04-23T19:58:03.299Z,99.90
2018-04-23T20:00:30.890Z,99.90
2018-04-23T20:02:58.373Z,99.90
2018-04-23T20:05:26.658Z,99.90
2018-04-23T20:07:54.952Z,99.90
2018-04-23T20:10:22.508Z,99.90
2018-04-23T20:12:50.027Z,99.90
2018-04-23T20:15:18.348Z,99.90
2018-04-23T20:17:45.926Z,99.90
2018-04-23T20:20:13.446Z,99.90
2018-04-23T20:22:41.848Z,99.90
2018-04-23T20:25:09.358Z,99.90
2018-04-23T20:27:36.871Z,99.90
2018-04-23T20:30:04.406Z,99.90
2018-04-23T20:32:32.716Z,99.90
2018-04-23T20:35:00.229Z,99.90
2018-04-23T20:37:27.755Z,99.90
2018-04-23T20:39:55.261Z,99.90
2018-04-23T20:42:23.535Z,99.90
2018-04-23T20:44:51.832Z,99.90
2018-04-23T20:47:20.110Z,99.90
2018-04-23T20:49:47.645Z,99.90
2018-04-23T20:52:15.246Z,99.90
2018-04-23T20:54:42.801Z,99.90
2018-04-23T20:57:10.320Z,99.90
2018-04-23T20:59:37.930Z,99.90
2018-04-23T21:02:05.446Z,99.90
2018-04-23T21:04:33.786Z,99.90
2018-04-23T21:07:01.296Z,99.90
2018-04-23T21:09:29.599Z,99.90
2018-04-23T21:11:57.157Z,99.90
2018-04-23T21:14:24.720Z,99.90
2018-04-23T21:16:52.238Z,99.90
2018-04-23T21:19:19.746Z,99.90
2018-04-23T21:21:47.412Z,99.90
2018-04-23T21:24:14.934Z,99.90
2018-04-23T21:26:43.216Z,99.90
2018-04-23T21:29:12.476Z,99.90
2018-04-23T21:31:40.006Z,99.90
2018-04-23T21:34:07.538Z,99.90
2018-04-23T21:36:35.825Z,99.90
2018-04-23T21:39:03.350Z,99.90
2018-04-23T21:41:30.960Z,99.90
2018-04-23T21:43:58.480Z,99.90
2018-04-23T21:46:25.997Z,99.90
2018-04-23T21:48:53.542Z,99.90
2018-04-23T21:51:21.065Z,99.90
2018-04-23T21:53:49.351Z,99.90
2018-04-23T21:56:17.637Z,99.90
2018-04-23T21:58:45.924Z,99.90
2018-04-23T22:01:13.496Z,99.90
2018-04-23T22:03:41.021Z,99.90
2018-04-23T22:06:09.312Z,99.90
2018-04-23T22:08:37.607Z,99.90
2018-04-23T22:11:05.115Z,99.90
2018-04-23T22:13:32.650Z,99.90
2018-04-23T22:16:00.165Z,99.90
2018-04-23T22:18:28.446Z,99.90
2018-04-23T22:20:56.741Z,99.90
2018-04-23T22:23:24.245Z,99.90
2018-04-23T22:25:51.864Z,99.90
2018-04-23T22:28:19.526Z,99.90
2018-04-23T22:30:47.076Z,99.90
2018-04-23T22:33:14.588Z,99.90
2018-04-23T22:35:42.194Z,99.90
2018-04-23T22:38:09.702Z,99.90
2018-04-23T22:40:37.218Z,99.90
2018-04-23T22:43:04.778Z,99.90
2018-04-23T22:45:32.296Z,99.90
2018-04-23T22:48:01.347Z,99.90
2018-04-23T22:50:28.874Z,99.90
2018-04-23T22:52:57.168Z,99.90
2018-04-23T22:55:24.741Z,99.90
2018-04-23T22:57:52.304Z,99.90
2018-04-23T23:00:19.858Z,99.90
2018-04-23T23:02:47.385Z,99.90
2018-04-23T23:05:15.699Z,99.90
2018-04-23T23:07:43.217Z,99.90
2018-04-23T23:10:10.743Z,99.90
2018-04-23T23:12:38.263Z,99.90
2018-04-23T23:15:05.842Z,99.90
2018-04-23T23:17:33.403Z,99.90
2018-04-23T23:20:00.929Z,99.90
2018-04-23T23:22:29.210Z,99.90
2018-04-23T23:24:57.500Z,99.90
2018-04-23T23:27:25.059Z,99.90
2018-04-23T23:29:52.545Z,99.90
2018-04-23T23:32:20.068Z,99.90
2018-04-23T23:34:48.346Z,99.90
2018-04-23T23:37:16.649Z,99.90
2018-04-23T23:39:44.160Z,99.90
2018-04-23T23:42:11.819Z,99.90
2018-04-23T23:44:39.433Z,99.90
2018-04-23T23:47:06.943Z,99.90
2018-04-23T23:49:34.454Z,99.90
2018-04-23T23:52:02.000Z,99.90
2018-04-23T23:54:29.516Z,99.90
2018-04-23T23:56:57.136Z,99.90
2018-04-23T23:59:24.658Z,99.90
